sensor_id;sensor_type;location;lat;lon;timestamp;P1;durP1;ratioP1;P2;durP2;ratioP2
19173;SDS011;9719;49.322;8.536;2024-03-02T00:01:18;3.70;;;3.50;;
19173;SDS011;9719;49.322;8.536;2024-03-02T00:06:19;3.97;;;3.20;;
19173;SDS011;9719;49.322;8.536;2024-03-02T00:11:22;3.58;;;3.33;;
19173;SDS011;9719;49.322;8.536;2024-03-02T00:16:25;3.83;;;3.40;;
19173;SDS011;9719;49.322;8.536;2024-03-02T00:21:31;3.80;;;3.45;;
19173;SDS011;9719;49.322;8.536;2024-03-02T00:26:34;3.50;;;3.17;;
19173;SDS011;9719;49.322;8.536;2024-03-02T00:31:36;3.53;;;3.15;;
19173;SDS011;9719;49.322;8.536;2024-03-02T00:36:41;3.72;;;2.72;;
19173;SDS011;9719;49.322;8.536;2024-03-02T00:41:43;3.58;;;3.28;;
19173;SDS011;9719;49.322;8.536;2024-03-02T00:46:46;3.60;;;3.40;;
19173;SDS011;9719;49.322;8.536;2024-03-02T00:51:48;3.05;;;2.85;;
19173;SDS011;9719;49.322;8.536;2024-03-02T00:56:50;3.67;;;3.20;;
19173;SDS011;9719;49.322;8.536;2024-03-02T01:01:56;4.72;;;3.30;;
19173;SDS011;9719;49.322;8.536;2024-03-02T01:06:57;4.45;;;4.10;;
19173;SDS011;9719;49.322;8.536;2024-03-02T01:11:59;5.97;;;3.72;;
19173;SDS011;9719;49.322;8.536;2024-03-02T01:17:02;3.58;;;3.38;;
19173;SDS011;9719;49.322;8.536;2024-03-02T01:22:04;5.80;;;4.60;;
19173;SDS011;9719;49.322;8.536;2024-03-02T01:27:06;3.63;;;3.30;;
19173;SDS011;9719;49.322;8.536;2024-03-02T01:32:09;3.47;;;3.20;;
19173;SDS011;9719;49.322;8.536;2024-03-02T01:37:11;3.20;;;2.87;;
19173;SDS011;9719;49.322;8.536;2024-03-02T01:42:12;5.13;;;4.20;;
19173;SDS011;9719;49.322;8.536;2024-03-02T01:47:15;2.70;;;2.50;;
19173;SDS011;9719;49.322;8.536;2024-03-02T01:52:17;3.07;;;2.87;;
19173;SDS011;9719;49.322;8.536;2024-03-02T01:57:19;4.37;;;3.80;;
19173;SDS011;9719;49.322;8.536;2024-03-02T02:02:22;3.80;;;3.50;;
19173;SDS011;9719;49.322;8.536;2024-03-02T02:07:24;3.83;;;3.55;;
19173;SDS011;9719;49.322;8.536;2024-03-02T02:12:25;5.27;;;2.97;;
19173;SDS011;9719;49.322;8.536;2024-03-02T02:17:28;5.40;;;2.93;;
19173;SDS011;9719;49.322;8.536;2024-03-02T02:22:31;5.18;;;2.85;;
19173;SDS011;9719;49.322;8.536;2024-03-02T02:27:33;3.40;;;3.20;;
19173;SDS011;9719;49.322;8.536;2024-03-02T02:32:35;3.17;;;2.85;;
19173;SDS011;9719;49.322;8.536;2024-03-02T02:37:38;2.83;;;2.72;;
19173;SDS011;9719;49.322;8.536;2024-03-02T02:42:40;2.75;;;2.50;;
19173;SDS011;9719;49.322;8.536;2024-03-02T02:47:43;3.17;;;2.88;;
19173;SDS011;9719;49.322;8.536;2024-03-02T02:52:46;3.63;;;3.33;;
19173;SDS011;9719;49.322;8.536;2024-03-02T02:57:48;6.60;;;3.47;;
19173;SDS011;9719;49.322;8.536;2024-03-02T03:02:50;3.75;;;3.28;;
19173;SDS011;9719;49.322;8.536;2024-03-02T03:07:53;3.25;;;3.05;;
19173;SDS011;9719;49.322;8.536;2024-03-02T03:12:54;4.75;;;3.15;;
19173;SDS011;9719;49.322;8.536;2024-03-02T03:17:56;3.80;;;3.50;;
19173;SDS011;9719;49.322;8.536;2024-03-02T03:22:59;3.63;;;3.33;;
19173;SDS011;9719;49.322;8.536;2024-03-02T03:28:01;2.43;;;2.27;;
19173;SDS011;9719;49.322;8.536;2024-03-02T03:33:03;4.00;;;3.40;;
19173;SDS011;9719;49.322;8.536;2024-03-02T03:38:07;3.23;;;2.90;;
19173;SDS011;9719;49.322;8.536;2024-03-02T03:43:08;2.58;;;2.38;;
19173;SDS011;9719;49.322;8.536;2024-03-02T03:48:10;3.22;;;2.92;;
19173;SDS011;9719;49.322;8.536;2024-03-02T03:53:13;3.67;;;3.33;;
19173;SDS011;9719;49.322;8.536;2024-03-02T03:58:15;2.90;;;2.78;;
19173;SDS011;9719;49.322;8.536;2024-03-02T04:03:18;3.65;;;3.35;;
19173;SDS011;9719;49.322;8.536;2024-03-02T04:08:21;3.72;;;3.30;;
19173;SDS011;9719;49.322;8.536;2024-03-02T04:13:23;3.03;;;2.55;;
19173;SDS011;9719;49.322;8.536;2024-03-02T04:18:25;2.87;;;2.57;;
19173;SDS011;9719;49.322;8.536;2024-03-02T04:23:28;3.47;;;3.17;;
19173;SDS011;9719;49.322;8.536;2024-03-02T04:28:29;5.20;;;4.90;;
19173;SDS011;9719;49.322;8.536;2024-03-02T04:33:31;5.80;;;3.87;;
19173;SDS011;9719;49.322;8.536;2024-03-02T04:38:34;4.65;;;3.92;;
19173;SDS011;9719;49.322;8.536;2024-03-02T04:43:35;4.38;;;3.78;;
19173;SDS011;9719;49.322;8.536;2024-03-02T04:48:37;4.80;;;3.50;;
19173;SDS011;9719;49.322;8.536;2024-03-02T04:53:40;4.17;;;3.73;;
19173;SDS011;9719;49.322;8.536;2024-03-02T04:58:42;5.73;;;3.17;;
19173;SDS011;9719;49.322;8.536;2024-03-02T05:03:43;5.37;;;2.87;;
19173;SDS011;9719;49.322;8.536;2024-03-02T05:08:46;3.20;;;2.90;;
19173;SDS011;9719;49.322;8.536;2024-03-02T05:13:48;3.83;;;3.53;;
19173;SDS011;9719;49.322;8.536;2024-03-02T05:18:50;2.90;;;2.70;;
19173;SDS011;9719;49.322;8.536;2024-03-02T05:23:53;3.38;;;3.08;;
19173;SDS011;9719;49.322;8.536;2024-03-02T05:28:54;3.40;;;3.10;;
19173;SDS011;9719;49.322;8.536;2024-03-02T05:33:56;3.58;;;3.33;;
19173;SDS011;9719;49.322;8.536;2024-03-02T05:38:59;7.38;;;3.22;;
19173;SDS011;9719;49.322;8.536;2024-03-02T05:44:01;3.47;;;3.17;;
19173;SDS011;9719;49.322;8.536;2024-03-02T05:49:03;3.22;;;3.03;;
19173;SDS011;9719;49.322;8.536;2024-03-02T05:54:06;3.47;;;2.87;;
19173;SDS011;9719;49.322;8.536;2024-03-02T05:59:07;2.70;;;2.50;;
19173;SDS011;9719;49.322;8.536;2024-03-02T06:04:12;2.72;;;2.53;;
19173;SDS011;9719;49.322;8.536;2024-03-02T06:09:16;3.27;;;3.07;;
19173;SDS011;9719;49.322;8.536;2024-03-02T06:14:18;3.43;;;2.83;;
19173;SDS011;9719;49.322;8.536;2024-03-02T06:19:19;3.50;;;3.20;;
19173;SDS011;9719;49.322;8.536;2024-03-02T06:24:23;4.67;;;3.53;;
19173;SDS011;9719;49.322;8.536;2024-03-02T06:29:26;3.60;;;3.30;;
19173;SDS011;9719;49.322;8.536;2024-03-02T06:34:28;4.03;;;3.37;;
19173;SDS011;9719;49.322;8.536;2024-03-02T06:39:31;3.37;;;3.10;;
19173;SDS011;9719;49.322;8.536;2024-03-02T06:44:34;3.03;;;2.40;;
19173;SDS011;9719;49.322;8.536;2024-03-02T06:49:35;4.60;;;4.10;;
19173;SDS011;9719;49.322;8.536;2024-03-02T06:54:38;3.60;;;3.30;;
19173;SDS011;9719;49.322;8.536;2024-03-02T06:59:40;3.30;;;3.00;;
19173;SDS011;9719;49.322;8.536;2024-03-02T07:04:41;5.10;;;3.70;;
19173;SDS011;9719;49.322;8.536;2024-03-02T07:09:46;3.75;;;3.42;;
19173;SDS011;9719;49.322;8.536;2024-03-02T07:14:48;4.32;;;4.03;;
19173;SDS011;9719;49.322;8.536;2024-03-02T07:20:11;3.83;;;3.30;;
19173;SDS011;9719;49.322;8.536;2024-03-02T07:25:14;3.83;;;3.53;;
19173;SDS011;9719;49.322;8.536;2024-03-02T07:30:16;5.03;;;4.53;;
19173;SDS011;9719;49.322;8.536;2024-03-02T07:35:17;5.50;;;4.93;;
19173;SDS011;9719;49.322;8.536;2024-03-02T07:40:20;3.67;;;3.38;;
19173;SDS011;9719;49.322;8.536;2024-03-02T07:45:22;3.42;;;2.83;;
19173;SDS011;9719;49.322;8.536;2024-03-02T07:50:24;4.55;;;4.25;;
19173;SDS011;9719;49.322;8.536;2024-03-02T07:55:27;3.00;;;2.70;;
19173;SDS011;9719;49.322;8.536;2024-03-02T08:00:29;3.33;;;2.88;;
19173;SDS011;9719;49.322;8.536;2024-03-02T08:05:30;3.20;;;2.92;;
19173;SDS011;9719;49.322;8.536;2024-03-02T08:10:33;4.22;;;3.92;;
19173;SDS011;9719;49.322;8.536;2024-03-02T08:15:35;4.20;;;3.90;;
19173;SDS011;9719;49.322;8.536;2024-03-02T08:20:37;3.78;;;3.53;;
19173;SDS011;9719;49.322;8.536;2024-03-02T08:25:40;4.00;;;3.80;;
19173;SDS011;9719;49.322;8.536;2024-03-02T08:30:42;4.60;;;4.18;;
19173;SDS011;9719;49.322;8.536;2024-03-02T08:35:44;3.92;;;3.65;;
19173;SDS011;9719;49.322;8.536;2024-03-02T08:40:47;4.95;;;4.47;;
19173;SDS011;9719;49.322;8.536;2024-03-02T08:45:50;5.90;;;5.40;;
19173;SDS011;9719;49.322;8.536;2024-03-02T08:50:52;5.07;;;3.85;;
19173;SDS011;9719;49.322;8.536;2024-03-02T08:55:56;3.90;;;3.50;;
19173;SDS011;9719;49.322;8.536;2024-03-02T09:00:57;4.28;;;3.88;;
19173;SDS011;9719;49.322;8.536;2024-03-02T09:05:59;4.22;;;3.90;;
19173;SDS011;9719;49.322;8.536;2024-03-02T09:11:02;3.85;;;3.45;;
19173;SDS011;9719;49.322;8.536;2024-03-02T09:16:05;3.83;;;3.53;;
19173;SDS011;9719;49.322;8.536;2024-03-02T09:21:07;3.67;;;3.45;;
19173;SDS011;9719;49.322;8.536;2024-03-02T09:26:10;4.10;;;3.70;;
19173;SDS011;9719;49.322;8.536;2024-03-02T09:31:12;3.00;;;2.72;;
19173;SDS011;9719;49.322;8.536;2024-03-02T09:36:17;3.97;;;3.63;;
19173;SDS011;9719;49.322;8.536;2024-03-02T09:41:20;4.18;;;3.80;;
19173;SDS011;9719;49.322;8.536;2024-03-02T09:46:22;4.05;;;3.67;;
19173;SDS011;9719;49.322;8.536;2024-03-02T09:51:23;4.55;;;3.67;;
19173;SDS011;9719;49.322;8.536;2024-03-02T09:56:26;4.88;;;4.32;;
19173;SDS011;9719;49.322;8.536;2024-03-02T10:01:28;5.32;;;4.93;;
19173;SDS011;9719;49.322;8.536;2024-03-02T10:06:30;3.60;;;3.40;;
19173;SDS011;9719;49.322;8.536;2024-03-02T10:11:34;3.38;;;3.17;;
19173;SDS011;9719;49.322;8.536;2024-03-02T10:16:38;2.65;;;2.55;;
19173;SDS011;9719;49.322;8.536;2024-03-02T10:21:41;3.35;;;3.15;;
19173;SDS011;9719;49.322;8.536;2024-03-02T10:26:44;3.20;;;2.75;;
19173;SDS011;9719;49.322;8.536;2024-03-02T10:31:46;2.97;;;2.78;;
19173;SDS011;9719;49.322;8.536;2024-03-02T10:36:48;3.40;;;3.20;;
19173;SDS011;9719;49.322;8.536;2024-03-02T10:41:52;4.40;;;4.00;;
19173;SDS011;9719;49.322;8.536;2024-03-02T10:46:56;3.55;;;3.25;;
19173;SDS011;9719;49.322;8.536;2024-03-02T10:51:59;3.33;;;2.90;;
19173;SDS011;9719;49.322;8.536;2024-03-02T10:57:03;4.00;;;3.58;;
19173;SDS011;9719;49.322;8.536;2024-03-02T11:02:09;4.75;;;3.90;;
19173;SDS011;9719;49.322;8.536;2024-03-02T11:07:13;3.70;;;3.40;;
19173;SDS011;9719;49.322;8.536;2024-03-02T11:12:19;2.95;;;2.75;;
19173;SDS011;9719;49.322;8.536;2024-03-02T11:17:24;3.85;;;3.53;;
19173;SDS011;9719;49.322;8.536;2024-03-02T11:22:26;2.95;;;2.70;;
19173;SDS011;9719;49.322;8.536;2024-03-02T11:33:04;3.28;;;3.08;;
19173;SDS011;9719;49.322;8.536;2024-03-02T11:38:07;3.33;;;3.03;;
19173;SDS011;9719;49.322;8.536;2024-03-02T11:43:11;3.90;;;2.95;;
19173;SDS011;9719;49.322;8.536;2024-03-02T11:48:13;2.05;;;1.95;;
19173;SDS011;9719;49.322;8.536;2024-03-02T11:53:16;2.17;;;1.48;;
19173;SDS011;9719;49.322;8.536;2024-03-02T11:58:19;3.58;;;1.80;;
19173;SDS011;9719;49.322;8.536;2024-03-02T12:03:24;2.88;;;2.55;;
19173;SDS011;9719;49.322;8.536;2024-03-02T12:08:26;2.88;;;1.85;;
19173;SDS011;9719;49.322;8.536;2024-03-02T12:13:30;2.47;;;1.80;;
19173;SDS011;9719;49.322;8.536;2024-03-02T12:18:31;2.30;;;2.10;;
19173;SDS011;9719;49.322;8.536;2024-03-02T12:23:33;1.80;;;1.70;;
19173;SDS011;9719;49.322;8.536;2024-03-02T12:28:37;1.48;;;1.38;;
19173;SDS011;9719;49.322;8.536;2024-03-02T12:33:39;1.45;;;1.35;;
19173;SDS011;9719;49.322;8.536;2024-03-02T12:38:42;1.65;;;1.55;;
19173;SDS011;9719;49.322;8.536;2024-03-02T12:43:46;1.75;;;1.65;;
19173;SDS011;9719;49.322;8.536;2024-03-02T12:48:47;2.10;;;1.95;;
19173;SDS011;9719;49.322;8.536;2024-03-02T12:53:52;2.80;;;2.03;;
19173;SDS011;9719;49.322;8.536;2024-03-02T12:58:56;1.77;;;1.67;;
19173;SDS011;9719;49.322;8.536;2024-03-02T13:03:59;7.45;;;2.92;;
19173;SDS011;9719;49.322;8.536;2024-03-02T13:09:01;2.08;;;1.98;;
19173;SDS011;9719;49.322;8.536;2024-03-02T13:14:06;2.88;;;2.20;;
19173;SDS011;9719;49.322;8.536;2024-03-02T13:19:07;1.55;;;1.45;;
19173;SDS011;9719;49.322;8.536;2024-03-02T13:24:09;1.98;;;1.60;;
19173;SDS011;9719;49.322;8.536;2024-03-02T13:29:12;2.05;;;1.80;;
19173;SDS011;9719;49.322;8.536;2024-03-02T13:34:14;2.50;;;2.22;;
19173;SDS011;9719;49.322;8.536;2024-03-02T13:39:15;1.80;;;1.70;;
19173;SDS011;9719;49.322;8.536;2024-03-02T13:44:18;1.67;;;1.58;;
19173;SDS011;9719;49.322;8.536;2024-03-02T13:49:21;2.20;;;2.00;;
19173;SDS011;9719;49.322;8.536;2024-03-02T13:54:23;1.55;;;1.45;;
19173;SDS011;9719;49.322;8.536;2024-03-02T13:59:28;1.60;;;1.50;;
19173;SDS011;9719;49.322;8.536;2024-03-02T14:04:29;1.52;;;1.30;;
19173;SDS011;9719;49.322;8.536;2024-03-02T14:09:32;1.90;;;1.80;;
19173;SDS011;9719;49.322;8.536;2024-03-02T14:14:35;1.92;;;1.83;;
19173;SDS011;9719;49.322;8.536;2024-03-02T14:19:36;1.67;;;1.13;;
19173;SDS011;9719;49.322;8.536;2024-03-02T14:24:38;2.72;;;1.48;;
19173;SDS011;9719;49.322;8.536;2024-03-02T14:29:42;1.33;;;0.82;;
19173;SDS011;9719;49.322;8.536;2024-03-02T14:34:44;1.15;;;0.98;;
19173;SDS011;9719;49.322;8.536;2024-03-02T14:39:46;0.80;;;0.80;;
19173;SDS011;9719;49.322;8.536;2024-03-02T14:44:49;0.75;;;0.75;;
19173;SDS011;9719;49.322;8.536;2024-03-02T14:49:51;1.10;;;1.10;;
19173;SDS011;9719;49.322;8.536;2024-03-02T14:54:53;1.02;;;0.95;;
19173;SDS011;9719;49.322;8.536;2024-03-02T14:59:56;1.08;;;1.08;;
19173;SDS011;9719;49.322;8.536;2024-03-02T15:04:57;0.88;;;0.80;;
19173;SDS011;9719;49.322;8.536;2024-03-02T15:09:59;1.10;;;1.10;;
19173;SDS011;9719;49.322;8.536;2024-03-02T15:15:03;0.90;;;0.75;;
19173;SDS011;9719;49.322;8.536;2024-03-02T15:20:05;0.70;;;0.70;;
19173;SDS011;9719;49.322;8.536;2024-03-02T15:25:08;1.00;;;1.00;;
19173;SDS011;9719;49.322;8.536;2024-03-02T15:30:11;0.88;;;0.88;;
19173;SDS011;9719;49.322;8.536;2024-03-02T15:35:13;1.70;;;0.90;;
19173;SDS011;9719;49.322;8.536;2024-03-02T15:40:15;0.85;;;0.80;;
19173;SDS011;9719;49.322;8.536;2024-03-02T15:45:18;0.70;;;0.70;;
19173;SDS011;9719;49.322;8.536;2024-03-02T15:50:20;1.15;;;1.05;;
19173;SDS011;9719;49.322;8.536;2024-03-02T15:55:21;0.70;;;0.70;;
19173;SDS011;9719;49.322;8.536;2024-03-02T16:00:24;0.80;;;0.70;;
19173;SDS011;9719;49.322;8.536;2024-03-02T16:05:26;0.95;;;0.95;;
19173;SDS011;9719;49.322;8.536;2024-03-02T16:10:28;1.55;;;1.08;;
19173;SDS011;9719;49.322;8.536;2024-03-02T16:15:31;0.90;;;0.90;;
19173;SDS011;9719;49.322;8.536;2024-03-02T16:20:34;0.98;;;0.98;;
19173;SDS011;9719;49.322;8.536;2024-03-02T16:25:35;1.40;;;1.15;;
19173;SDS011;9719;49.322;8.536;2024-03-02T16:30:38;1.48;;;1.38;;
19173;SDS011;9719;49.322;8.536;2024-03-02T16:35:40;2.38;;;2.15;;
19173;SDS011;9719;49.322;8.536;2024-03-02T16:40:42;1.75;;;1.65;;
19173;SDS011;9719;49.322;8.536;2024-03-02T16:45:46;1.50;;;1.38;;
19173;SDS011;9719;49.322;8.536;2024-03-02T16:50:47;1.95;;;1.73;;
19173;SDS011;9719;49.322;8.536;2024-03-02T16:55:49;2.50;;;1.83;;
19173;SDS011;9719;49.322;8.536;2024-03-02T17:00:52;2.80;;;1.63;;
19173;SDS011;9719;49.322;8.536;2024-03-02T17:05:54;2.72;;;2.28;;
19173;SDS011;9719;49.322;8.536;2024-03-02T17:10:56;3.05;;;1.88;;
19173;SDS011;9719;49.322;8.536;2024-03-02T17:15:59;1.95;;;1.85;;
19173;SDS011;9719;49.322;8.536;2024-03-02T17:21:00;5.65;;;5.15;;
19173;SDS011;9719;49.322;8.536;2024-03-02T17:26:02;2.70;;;2.42;;
19173;SDS011;9719;49.322;8.536;2024-03-02T17:31:05;1.70;;;1.65;;
19173;SDS011;9719;49.322;8.536;2024-03-02T17:36:07;1.98;;;1.52;;
19173;SDS011;9719;49.322;8.536;2024-03-02T17:41:09;1.35;;;1.33;;
19173;SDS011;9719;49.322;8.536;2024-03-02T17:46:12;1.98;;;1.88;;
19173;SDS011;9719;49.322;8.536;2024-03-02T17:51:15;1.27;;;1.27;;
19173;SDS011;9719;49.322;8.536;2024-03-02T17:56:17;1.55;;;1.45;;
19173;SDS011;9719;49.322;8.536;2024-03-02T18:01:20;1.42;;;1.35;;
19173;SDS011;9719;49.322;8.536;2024-03-02T18:06:21;1.17;;;1.10;;
19173;SDS011;9719;49.322;8.536;2024-03-02T18:11:23;1.08;;;1.08;;
19173;SDS011;9719;49.322;8.536;2024-03-02T18:16:26;1.50;;;1.40;;
19173;SDS011;9719;49.322;8.536;2024-03-02T18:21:29;1.00;;;1.00;;
19173;SDS011;9719;49.322;8.536;2024-03-02T18:26:31;1.00;;;1.00;;
19173;SDS011;9719;49.322;8.536;2024-03-02T18:31:36;0.95;;;0.95;;
19173;SDS011;9719;49.322;8.536;2024-03-02T18:36:37;1.52;;;1.25;;
19173;SDS011;9719;49.322;8.536;2024-03-02T18:41:39;1.75;;;1.50;;
19173;SDS011;9719;49.322;8.536;2024-03-02T18:46:42;1.35;;;1.25;;
19173;SDS011;9719;49.322;8.536;2024-03-02T18:51:44;1.63;;;1.52;;
19173;SDS011;9719;49.322;8.536;2024-03-02T18:56:45;1.80;;;1.70;;
19173;SDS011;9719;49.322;8.536;2024-03-02T19:01:48;2.03;;;1.85;;
19173;SDS011;9719;49.322;8.536;2024-03-02T19:06:50;2.10;;;1.90;;
19173;SDS011;9719;49.322;8.536;2024-03-02T19:11:52;2.90;;;2.47;;
19173;SDS011;9719;49.322;8.536;2024-03-02T19:16:56;3.20;;;2.92;;
19173;SDS011;9719;49.322;8.536;2024-03-02T19:21:58;3.55;;;2.13;;
19173;SDS011;9719;49.322;8.536;2024-03-02T19:27:00;3.05;;;2.38;;
19173;SDS011;9719;49.322;8.536;2024-03-02T19:32:03;4.13;;;3.25;;
19173;SDS011;9719;49.322;8.536;2024-03-02T19:37:05;2.63;;;2.42;;
19173;SDS011;9719;49.322;8.536;2024-03-02T19:42:07;3.67;;;3.38;;
19173;SDS011;9719;49.322;8.536;2024-03-02T19:47:10;3.05;;;2.85;;
19173;SDS011;9719;49.322;8.536;2024-03-02T19:52:17;3.80;;;3.40;;
19173;SDS011;9719;49.322;8.536;2024-03-02T19:57:19;3.15;;;2.95;;
19173;SDS011;9719;49.322;8.536;2024-03-02T20:02:24;4.47;;;3.58;;
19173;SDS011;9719;49.322;8.536;2024-03-02T20:07:27;4.18;;;3.88;;
19173;SDS011;9719;49.322;8.536;2024-03-02T20:12:28;4.05;;;3.65;;
19173;SDS011;9719;49.322;8.536;2024-03-02T20:17:32;4.38;;;3.90;;
19173;SDS011;9719;49.322;8.536;2024-03-02T20:22:34;7.50;;;5.82;;
19173;SDS011;9719;49.322;8.536;2024-03-02T20:27:35;4.25;;;3.90;;
19173;SDS011;9719;49.322;8.536;2024-03-02T20:32:38;6.60;;;4.65;;
19173;SDS011;9719;49.322;8.536;2024-03-02T20:37:40;6.05;;;4.35;;
19173;SDS011;9719;49.322;8.536;2024-03-02T20:42:42;6.38;;;4.85;;
19173;SDS011;9719;49.322;8.536;2024-03-02T20:47:46;4.80;;;4.25;;
19173;SDS011;9719;49.322;8.536;2024-03-02T20:52:47;6.07;;;5.55;;
19173;SDS011;9719;49.322;8.536;2024-03-02T20:57:49;7.53;;;6.07;;
19173;SDS011;9719;49.322;8.536;2024-03-02T21:02:52;5.35;;;4.82;;
19173;SDS011;9719;49.322;8.536;2024-03-02T21:07:54;6.70;;;5.78;;
19173;SDS011;9719;49.322;8.536;2024-03-02T21:12:56;6.28;;;5.65;;
19173;SDS011;9719;49.322;8.536;2024-03-02T21:18:00;6.30;;;5.78;;
19173;SDS011;9719;49.322;8.536;2024-03-02T21:23:02;8.40;;;5.47;;
19173;SDS011;9719;49.322;8.536;2024-03-02T21:28:04;4.88;;;4.47;;
19173;SDS011;9719;49.322;8.536;2024-03-02T21:33:07;8.05;;;5.63;;
19173;SDS011;9719;49.322;8.536;2024-03-02T21:38:08;8.45;;;6.05;;
19173;SDS011;9719;49.322;8.536;2024-03-02T21:43:10;7.57;;;6.00;;
19173;SDS011;9719;49.322;8.536;2024-03-02T21:48:13;5.72;;;5.25;;
19173;SDS011;9719;49.322;8.536;2024-03-02T21:53:15;6.78;;;5.82;;
19173;SDS011;9719;49.322;8.536;2024-03-02T21:58:16;8.23;;;5.15;;
19173;SDS011;9719;49.322;8.536;2024-03-02T22:03:19;5.57;;;5.20;;
19173;SDS011;9719;49.322;8.536;2024-03-02T22:08:21;8.48;;;6.20;;
19173;SDS011;9719;49.322;8.536;2024-03-02T22:13:23;6.82;;;6.18;;
19173;SDS011;9719;49.322;8.536;2024-03-02T22:18:26;8.07;;;5.25;;
19173;SDS011;9719;49.322;8.536;2024-03-02T22:23:27;6.93;;;6.20;;
19173;SDS011;9719;49.322;8.536;2024-03-02T22:28:30;6.07;;;5.45;;
19173;SDS011;9719;49.322;8.536;2024-03-02T22:33:33;6.32;;;5.68;;
19173;SDS011;9719;49.322;8.536;2024-03-02T22:38:34;7.25;;;5.57;;
19173;SDS011;9719;49.322;8.536;2024-03-02T22:43:36;6.60;;;6.05;;
19173;SDS011;9719;49.322;8.536;2024-03-02T22:48:39;5.07;;;4.60;;
19173;SDS011;9719;49.322;8.536;2024-03-02T22:53:41;7.63;;;6.93;;
19173;SDS011;9719;49.322;8.536;2024-03-02T22:58:42;6.25;;;5.63;;
19173;SDS011;9719;49.322;8.536;2024-03-02T23:03:45;7.18;;;6.03;;
19173;SDS011;9719;49.322;8.536;2024-03-02T23:08:47;6.68;;;6.18;;
19173;SDS011;9719;49.322;8.536;2024-03-02T23:13:49;6.32;;;5.78;;
19173;SDS011;9719;49.322;8.536;2024-03-02T23:18:52;6.78;;;5.93;;
19173;SDS011;9719;49.322;8.536;2024-03-02T23:23:54;7.30;;;5.65;;
19173;SDS011;9719;49.322;8.536;2024-03-02T23:28:57;6.38;;;5.85;;
19173;SDS011;9719;49.322;8.536;2024-03-02T23:34:00;6.28;;;5.72;;
19173;SDS011;9719;49.322;8.536;2024-03-02T23:39:04;5.80;;;5.30;;
19173;SDS011;9719;49.322;8.536;2024-03-02T23:44:06;7.45;;;5.78;;
19173;SDS011;9719;49.322;8.536;2024-03-02T23:49:10;7.72;;;6.93;;
19173;SDS011;9719;49.322;8.536;2024-03-02T23:54:11;7.72;;;6.93;;
19173;SDS011;9719;49.322;8.536;2024-03-02T23:59:13;6.72;;;6.18;;
